createdAt,value
2019-04-20T00:01:58.249Z,28.00
2019-04-20T00:04:30.955Z,26.17
2019-04-20T00:06:59.148Z,20.27
2019-04-20T00:09:32.725Z,19.02
2019-04-20T00:12:09.013Z,21.07
2019-04-20T00:14:35.447Z,20.77
2019-04-20T00:17:05.215Z,19.50
2019-04-20T00:19:42.212Z,19.62
2019-04-20T00:22:34.386Z,16.70
2019-04-20T00:25:20.608Z,22.17
2019-04-20T00:28:19.482Z,17.73
2019-04-20T00:30:54.310Z,17.92
2019-04-20T00:33:18.620Z,16.10
2019-04-20T00:35:37.988Z,17.77
2019-04-20T00:38:07.899Z,17.62
2019-04-20T00:40:37.696Z,19.35
2019-04-20T00:43:08.632Z,16.73
2019-04-20T00:45:46.864Z,62.20
2019-04-20T00:48:22.587Z,40.63
2019-04-20T00:50:55.285Z,30.17
2019-04-20T00:53:22.665Z,47.93
2019-04-20T00:55:46.334Z,122.95
2019-04-20T00:58:23.628Z,88.52
2019-04-20T01:01:06.921Z,69.55
2019-04-20T01:03:33.880Z,77.45
2019-04-20T01:06:23.126Z,20.02
2019-04-20T01:08:40.223Z,42.03
2019-04-20T01:11:10.298Z,49.83
2019-04-20T01:13:45.941Z,44.15
2019-04-20T01:16:25.485Z,52.78
2019-04-20T01:18:43.782Z,22.25
2019-04-20T01:21:19.855Z,40.43
2019-04-20T01:23:54.640Z,25.62
2019-04-20T01:26:20.593Z,29.48
2019-04-20T01:29:04.181Z,32.70
2019-04-20T01:31:29.573Z,28.57
2019-04-20T01:34:02.267Z,28.07
2019-04-20T01:36:42.974Z,152.65
2019-04-20T01:39:09.419Z,44.55
2019-04-20T01:41:28.595Z,119.55
2019-04-20T01:46:30.098Z,112.72
2019-04-20T01:49:07.976Z,153.42
2019-04-20T01:51:44.318Z,111.15
2019-04-20T01:54:23.514Z,47.45
2019-04-20T01:56:52.045Z,84.40
2019-04-20T01:59:26.259Z,137.37
2019-04-20T02:01:55.751Z,167.03
2019-04-20T02:04:30.152Z,142.70
2019-04-20T02:06:59.571Z,28.95
2019-04-20T02:09:28.040Z,33.67
2019-04-20T02:12:05.013Z,63.05
2019-04-20T02:14:40.054Z,49.03
2019-04-20T02:17:11.710Z,51.00
2019-04-20T02:19:52.240Z,58.98
2019-04-20T02:22:17.291Z,49.50
2019-04-20T02:24:36.977Z,48.78
2019-04-20T02:27:08.174Z,52.45
2019-04-20T02:29:58.163Z,87.65
2019-04-20T02:32:40.267Z,127.40
2019-04-20T02:35:18.510Z,351.20
2019-04-20T02:40:32.862Z,231.43
2019-04-20T02:42:59.799Z,67.40
2019-04-20T02:45:40.835Z,291.02
2019-04-20T02:48:10.013Z,327.40
2019-04-20T02:50:28.651Z,272.58
2019-04-20T02:53:05.231Z,240.28
2019-04-20T02:55:48.327Z,176.87
2019-04-20T02:58:05.269Z,178.42
2019-04-20T03:00:31.113Z,147.15
2019-04-20T03:02:48.687Z,106.83
2019-04-20T03:05:20.673Z,149.23
2019-04-20T03:07:57.514Z,137.10
2019-04-20T03:10:43.607Z,106.27
2019-04-20T03:13:08.534Z,162.62
2019-04-20T03:15:37.925Z,154.05
2019-04-20T03:18:12.020Z,156.28
2019-04-20T03:20:41.791Z,136.97
2019-04-20T03:23:26.118Z,110.80
2019-04-20T03:25:58.401Z,133.67
2019-04-20T03:28:44.120Z,126.70
2019-04-20T03:32:08.448Z,114.97
2019-04-20T03:34:38.385Z,118.47
2019-04-20T03:36:53.316Z,94.77
2019-04-20T03:39:13.832Z,155.35
2019-04-20T03:41:35.177Z,195.35
2019-04-20T03:44:03.154Z,121.97
2019-04-20T03:46:40.720Z,92.53
2019-04-20T03:49:20.265Z,80.70
2019-04-20T03:51:57.403Z,72.35
2019-04-20T03:54:24.749Z,59.77
2019-04-20T03:57:23.502Z,49.73
2019-04-20T04:00:00.429Z,44.23
2019-04-20T04:02:49.392Z,50.80
2019-04-20T04:05:08.936Z,42.67
2019-04-20T04:07:33.469Z,30.30
2019-04-20T04:10:09.810Z,24.65
2019-04-20T04:13:03.082Z,23.60
2019-04-20T04:15:37.052Z,37.25
2019-04-20T04:18:13.530Z,25.30
2019-04-20T04:20:50.057Z,20.30
2019-04-20T04:23:28.670Z,20.40
2019-04-20T04:26:03.591Z,19.27
2019-04-20T04:28:41.164Z,21.00
2019-04-20T04:31:11.901Z,24.72
2019-04-20T04:36:15.370Z,16.80
2019-04-20T04:38:59.848Z,16.15
2019-04-20T04:41:25.086Z,19.98
2019-04-20T04:43:58.825Z,17.65
2019-04-20T04:46:05.850Z,18.05
2019-04-20T04:51:13.633Z,14.33
2019-04-20T04:53:47.930Z,18.40
2019-04-20T04:56:16.079Z,17.05
2019-04-20T04:58:42.499Z,23.12
2019-04-20T05:01:18.413Z,12.70
2019-04-20T05:04:10.525Z,18.85
2019-04-20T05:06:30.015Z,17.50
2019-04-20T05:08:53.316Z,18.67
2019-04-20T05:11:21.626Z,17.05
2019-04-20T05:13:58.312Z,16.10
2019-04-20T05:16:40.947Z,17.45
2019-04-20T05:19:31.169Z,16.07
2019-04-20T05:22:01.096Z,16.57
2019-04-20T05:24:25.529Z,13.43
2019-04-20T05:27:01.725Z,15.32
2019-04-20T05:29:21.489Z,15.40
2019-04-20T05:31:53.351Z,14.58
2019-04-20T05:34:38.672Z,10.82
2019-04-20T05:37:17.745Z,16.05
2019-04-20T05:39:45.778Z,11.20
2019-04-20T05:42:17.705Z,15.25
2019-04-20T05:44:47.352Z,14.35
2019-04-20T05:47:19.187Z,13.93
2019-04-20T05:49:45.292Z,19.77
2019-04-20T05:52:38.667Z,14.70
2019-04-20T05:54:58.246Z,15.18
2019-04-20T06:00:03.577Z,18.07
2019-04-20T06:02:27.669Z,13.13
2019-04-20T06:05:05.677Z,12.95
2019-04-20T06:07:29.694Z,20.15
2019-04-20T06:10:09.360Z,13.18
2019-04-20T06:12:36.296Z,14.63
2019-04-20T06:15:04.515Z,14.83
2019-04-20T06:17:49.241Z,14.18
2019-04-20T06:20:23.449Z,16.15
2019-04-20T06:23:01.700Z,14.28
2019-04-20T06:27:58.086Z,13.78
2019-04-20T06:30:28.474Z,20.35
2019-04-20T06:33:53.384Z,22.52
2019-04-20T06:36:26.174Z,11.50
2019-04-20T06:39:13.382Z,11.18
2019-04-20T06:41:27.315Z,18.37
2019-04-20T06:43:53.969Z,15.85
2019-04-20T06:46:33.397Z,23.90
2019-04-20T06:48:52.405Z,11.38
2019-04-20T06:51:32.418Z,12.25
2019-04-20T06:54:03.235Z,10.45
2019-04-20T06:56:59.914Z,13.32
2019-04-20T06:59:41.785Z,12.10
2019-04-20T07:02:11.973Z,18.80
2019-04-20T07:07:14.646Z,16.45
2019-04-20T07:10:03.609Z,13.60
2019-04-20T07:12:17.146Z,7.47
2019-04-20T07:14:42.728Z,14.03
2019-04-20T07:17:45.569Z,9.83
2019-04-20T07:19:58.824Z,8.45
2019-04-20T07:22:51.048Z,15.55
2019-04-20T07:25:12.784Z,7.78
2019-04-20T07:27:41.491Z,10.85
2019-04-20T07:30:12.099Z,4.85
2019-04-20T07:32:52.165Z,7.75
2019-04-20T07:35:22.081Z,14.10
2019-04-20T07:40:23.200Z,3.85
2019-04-20T07:42:55.358Z,7.47
2019-04-20T07:45:30.757Z,4.72
2019-04-20T07:48:06.138Z,6.20
2019-04-20T07:50:26.541Z,11.90
2019-04-20T07:52:54.429Z,5.72
2019-04-20T07:55:49.635Z,8.25
2019-04-20T07:58:01.405Z,9.95
2019-04-20T08:00:51.892Z,6.58
2019-04-20T08:03:28.384Z,5.30
2019-04-20T08:05:47.044Z,6.37
2019-04-20T08:08:40.294Z,4.58
2019-04-20T08:10:59.617Z,8.63
2019-04-20T08:13:39.000Z,6.67
2019-04-20T08:16:06.914Z,8.80
2019-04-20T08:18:45.853Z,6.75
2019-04-20T08:21:12.881Z,5.55
2019-04-20T08:23:44.591Z,3.20
2019-04-20T08:26:06.657Z,5.42
2019-04-20T08:28:41.777Z,5.85
2019-04-20T08:31:24.581Z,4.55
2019-04-20T08:34:15.240Z,5.42
2019-04-20T08:36:43.331Z,5.10
2019-04-20T08:41:36.998Z,2.67
2019-04-20T08:46:53.550Z,3.22
2019-04-20T08:49:22.103Z,3.87
2019-04-20T08:54:20.647Z,7.08
2019-04-20T08:56:36.014Z,6.08
2019-04-20T08:59:00.327Z,4.15
2019-04-20T09:01:32.694Z,9.68
2019-04-20T09:04:09.788Z,3.80
2019-04-20T09:06:56.484Z,8.03
2019-04-20T09:09:44.534Z,11.70
2019-04-20T09:12:09.050Z,7.37
2019-04-20T09:14:20.959Z,6.92
2019-04-20T09:16:57.040Z,6.50
2019-04-20T09:19:36.732Z,3.42
2019-04-20T09:22:26.715Z,6.28
2019-04-20T09:25:13.394Z,5.37
2019-04-20T09:27:26.991Z,3.72
2019-04-20T09:30:06.206Z,6.50
2019-04-20T09:32:48.895Z,3.75
2019-04-20T09:35:24.862Z,5.92
2019-04-20T09:38:01.651Z,3.95
2019-04-20T09:40:34.954Z,5.85
2019-04-20T09:43:00.205Z,8.43
2019-04-20T09:45:40.977Z,7.62
2019-04-20T09:48:13.736Z,3.58
2019-04-20T09:50:55.579Z,4.30
2019-04-20T09:53:24.772Z,6.72
2019-04-20T09:55:59.222Z,4.78
2019-04-20T09:58:21.285Z,8.60
2019-04-20T10:00:57.972Z,7.83
2019-04-20T10:03:18.464Z,5.08
2019-04-20T10:05:49.649Z,3.20
2019-04-20T10:08:19.744Z,8.85
2019-04-20T10:10:51.176Z,4.33
2019-04-20T10:13:21.595Z,6.37
2019-04-20T10:15:53.441Z,4.67
2019-04-20T10:18:23.726Z,4.85
2019-04-20T10:20:53.928Z,6.80
2019-04-20T10:23:25.294Z,9.73
2019-04-20T10:25:56.427Z,10.65
2019-04-20T10:28:27.682Z,12.58
2019-04-20T10:30:58.937Z,11.88
2019-04-20T10:33:28.954Z,5.12
2019-04-20T10:35:59.419Z,9.43
2019-04-20T10:38:35.923Z,11.08
2019-04-20T10:41:13.898Z,9.43
2019-04-20T10:43:44.864Z,5.60
2019-04-20T10:46:15.071Z,11.63
2019-04-20T10:48:49.169Z,11.60
2019-04-20T10:51:17.755Z,8.98
2019-04-20T10:53:48.626Z,5.72
2019-04-20T10:56:19.055Z,5.62
2019-04-20T10:58:49.650Z,5.58
2019-04-20T11:01:19.910Z,4.87
2019-04-20T11:03:50.363Z,11.18
2019-04-20T11:06:26.872Z,14.73
2019-04-20T11:09:00.411Z,8.75
2019-04-20T11:11:33.600Z,3.55
2019-04-20T11:14:11.113Z,5.92
2019-04-20T11:16:40.296Z,5.97
2019-04-20T11:19:11.531Z,6.15
2019-04-20T11:21:42.313Z,4.42
2019-04-20T11:24:12.356Z,5.97
2019-04-20T11:26:44.772Z,7.47
2019-04-20T11:29:13.927Z,11.43
2019-04-20T11:31:47.748Z,5.75
2019-04-20T11:34:23.492Z,6.90
2019-04-20T11:36:46.891Z,6.05
2019-04-20T11:39:17.029Z,4.05
2019-04-20T11:41:47.662Z,11.20
2019-04-20T11:44:17.895Z,10.05
2019-04-20T11:46:50.693Z,15.32
2019-04-20T11:49:21.600Z,6.75
2019-04-20T11:51:53.424Z,8.63
2019-04-20T11:54:26.471Z,6.97
2019-04-20T11:56:57.425Z,7.28
2019-04-20T11:59:27.458Z,11.00
2019-04-20T12:02:03.921Z,5.65
2019-04-20T12:05:03.593Z,5.80
2019-04-20T12:07:19.277Z,13.87
2019-04-20T12:09:49.797Z,5.12
2019-04-20T12:12:29.984Z,4.12
2019-04-20T12:14:52.580Z,6.60
2019-04-20T12:17:23.687Z,8.15
2019-04-20T12:19:53.651Z,6.15
2019-04-20T12:22:24.128Z,5.30
2019-04-20T12:24:54.156Z,5.45
2019-04-20T12:27:25.464Z,4.20
2019-04-20T12:29:55.354Z,8.45
2019-04-20T12:32:28.247Z,12.82
2019-04-20T12:34:57.992Z,6.97
2019-04-20T12:37:29.089Z,6.58
2019-04-20T12:39:59.115Z,7.50
2019-04-20T12:42:29.000Z,5.35
2019-04-20T12:44:59.671Z,6.78
2019-04-20T12:47:29.911Z,7.55
2019-04-20T12:49:59.867Z,21.07
2019-04-20T12:52:32.345Z,8.55
2019-04-20T12:55:04.613Z,11.63
2019-04-20T12:57:34.429Z,9.95
2019-04-20T13:00:07.685Z,10.15
2019-04-20T13:02:39.243Z,14.15
2019-04-20T13:05:09.562Z,9.33
2019-04-20T13:07:44.850Z,3.95
2019-04-20T13:10:13.683Z,6.95
2019-04-20T13:12:58.507Z,10.72
2019-04-20T13:15:46.561Z,5.28
2019-04-20T13:18:32.997Z,5.83
2019-04-20T13:21:03.247Z,7.05
2019-04-20T13:23:33.237Z,8.25
2019-04-20T13:26:05.762Z,8.15
2019-04-20T13:28:37.847Z,5.75
2019-04-20T13:31:20.011Z,8.20
2019-04-20T13:33:51.593Z,6.37
2019-04-20T13:36:22.038Z,18.77
2019-04-20T13:38:52.328Z,16.02
2019-04-20T13:41:22.293Z,6.83
2019-04-20T13:43:54.846Z,4.67
2019-04-20T13:46:24.958Z,10.18
2019-04-20T13:48:55.206Z,3.47
2019-04-20T13:51:26.538Z,5.83
2019-04-20T13:53:57.577Z,5.03
2019-04-20T13:56:30.078Z,6.78
2019-04-20T13:59:08.323Z,5.55
2019-04-20T14:01:41.156Z,6.28
2019-04-20T14:04:12.839Z,7.45
2019-04-20T14:06:43.546Z,12.05
2019-04-20T14:09:13.510Z,8.63
2019-04-20T14:11:45.407Z,8.65
2019-04-20T14:14:15.506Z,10.48
2019-04-20T14:21:44.245Z,4.20
2019-04-20T14:24:15.081Z,13.88
2019-04-20T14:26:45.806Z,7.72
2019-04-20T14:29:16.977Z,12.30
2019-04-20T14:31:48.074Z,18.32
2019-04-20T14:34:17.951Z,5.67
2019-04-20T14:36:48.869Z,11.50
2019-04-20T14:39:20.382Z,6.53
2019-04-20T14:41:52.071Z,4.75
2019-04-20T14:44:21.949Z,7.50
2019-04-20T14:46:51.862Z,6.30
2019-04-20T14:49:22.986Z,6.65
2019-04-20T14:51:55.824Z,7.50
2019-04-20T14:54:25.620Z,4.53
2019-04-20T14:56:56.518Z,6.05
2019-04-20T14:59:33.931Z,8.33
2019-04-20T15:02:12.574Z,10.50
2019-04-20T15:04:43.237Z,11.12
2019-04-20T15:10:23.232Z,8.98
2019-04-20T15:12:59.270Z,4.62
2019-04-20T15:15:24.736Z,6.60
2019-04-20T15:18:02.218Z,5.25
2019-04-20T15:20:33.739Z,7.30
2019-04-20T15:23:07.546Z,17.10
2019-04-20T15:25:37.538Z,5.67
2019-04-20T15:28:08.280Z,8.68
2019-04-20T15:30:38.395Z,13.72
2019-04-20T15:33:09.216Z,8.58
2019-04-20T15:35:40.153Z,15.58
2019-04-20T15:38:11.211Z,9.45
2019-04-20T15:40:41.468Z,8.60
2019-04-20T15:43:17.060Z,10.82
2019-04-20T15:45:43.479Z,51.58
2019-04-20T15:48:14.388Z,16.40
2019-04-20T15:50:45.664Z,8.90
2019-04-20T15:53:15.749Z,8.20
2019-04-20T15:55:48.479Z,20.80
2019-04-20T15:58:18.477Z,15.50
2019-04-20T16:00:48.393Z,16.10
2019-04-20T16:03:21.035Z,8.05
2019-04-20T16:06:05.500Z,8.45
2019-04-20T16:08:38.761Z,11.68
2019-04-20T16:11:09.218Z,7.58
2019-04-20T16:13:44.018Z,6.45
2019-04-20T16:16:12.157Z,6.60
2019-04-20T16:18:43.268Z,8.78
2019-04-20T16:21:19.647Z,8.78
2019-04-20T16:23:46.464Z,11.28
2019-04-20T16:26:21.790Z,11.12
2019-04-20T16:28:53.368Z,10.40
2019-04-20T16:31:24.512Z,10.93
2019-04-20T16:33:56.879Z,15.28
2019-04-20T16:36:26.245Z,8.88
2019-04-20T16:38:57.375Z,11.60
2019-04-20T16:41:28.465Z,11.25
2019-04-20T16:43:59.499Z,15.20
2019-04-20T16:46:30.131Z,25.52
2019-04-20T16:51:29.345Z,54.10
2019-04-20T16:53:59.576Z,33.63
2019-04-20T16:56:30.750Z,43.55
2019-04-20T16:59:06.146Z,43.30
2019-04-20T17:01:32.279Z,53.83
2019-04-20T17:04:07.864Z,58.60
2019-04-20T17:06:35.990Z,41.83
2019-04-20T17:09:07.119Z,30.88
2019-04-20T17:11:37.047Z,35.05
2019-04-20T17:14:06.932Z,55.20
2019-04-20T17:16:39.587Z,33.30
2019-04-20T17:19:10.013Z,44.42
2019-04-20T17:24:11.224Z,62.08
2019-04-20T17:26:52.942Z,92.97
2019-04-20T17:29:28.300Z,75.72
2019-04-20T17:32:03.262Z,101.12
2019-04-20T17:34:46.830Z,104.25
2019-04-20T17:37:04.706Z,91.20
2019-04-20T17:39:45.533Z,104.80
2019-04-20T17:42:19.979Z,105.83
2019-04-20T17:44:51.878Z,99.67
2019-04-20T17:47:31.372Z,108.15
2019-04-20T17:50:02.097Z,112.70
2019-04-20T17:52:36.400Z,84.80
2019-04-20T17:54:47.581Z,75.90
2019-04-20T17:57:17.397Z,86.97
2019-04-20T17:59:55.349Z,67.05
2019-04-20T18:02:48.368Z,73.07
2019-04-20T18:05:22.960Z,63.15
2019-04-20T18:07:52.216Z,78.33
2019-04-20T18:10:28.940Z,85.53
2019-04-20T18:12:44.849Z,78.40
2019-04-20T18:15:31.266Z,143.10
2019-04-20T18:18:20.248Z,106.75
2019-04-20T18:20:52.594Z,115.00
2019-04-20T18:23:33.422Z,107.15
2019-04-20T18:26:18.525Z,132.55
2019-04-20T18:34:27.143Z,137.70
2019-04-20T18:36:54.590Z,180.63
2019-04-20T18:39:34.658Z,284.92
2019-04-20T18:42:06.502Z,280.85
2019-04-20T18:44:39.122Z,262.30
2019-04-20T18:47:18.647Z,238.62
2019-04-20T18:49:46.615Z,221.15
2019-04-20T18:52:09.332Z,224.60
2019-04-20T18:54:43.779Z,187.40
2019-04-20T18:57:14.247Z,215.18
2019-04-20T18:59:48.839Z,433.72
2019-04-20T19:02:22.612Z,297.33
2019-04-20T19:04:45.903Z,254.03
2019-04-20T19:07:17.504Z,201.37
2019-04-20T19:09:48.485Z,202.57
2019-04-20T19:12:30.110Z,169.40
2019-04-20T19:15:35.049Z,152.72
2019-04-20T19:17:58.990Z,173.53
2019-04-20T19:20:27.522Z,180.95
2019-04-20T19:22:57.900Z,169.05
2019-04-20T19:25:31.576Z,196.63
2019-04-20T19:28:01.348Z,147.90
2019-04-20T19:30:40.701Z,144.43
2019-04-20T19:33:20.522Z,164.40
2019-04-20T19:35:46.574Z,142.53
2019-04-20T19:38:15.656Z,139.07
2019-04-20T19:40:51.191Z,118.55
2019-04-20T19:43:22.156Z,109.00
2019-04-20T19:46:24.365Z,102.47
2019-04-20T19:48:28.283Z,100.47
2019-04-20T19:51:09.758Z,117.95
2019-04-20T19:53:36.581Z,104.35
2019-04-20T19:56:01.213Z,119.33
2019-04-20T19:58:35.930Z,89.95
2019-04-20T20:00:57.313Z,118.55
2019-04-20T20:03:25.950Z,128.18
2019-04-20T20:05:57.648Z,167.43
2019-04-20T20:08:34.829Z,127.47
2019-04-20T20:11:04.862Z,131.97
2019-04-20T20:13:41.939Z,126.55
2019-04-20T20:16:14.257Z,136.43
2019-04-20T20:18:51.012Z,139.25
2019-04-20T20:21:22.577Z,128.53
2019-04-20T20:23:41.797Z,136.03
2019-04-20T20:26:21.340Z,153.15
2019-04-20T20:28:49.478Z,141.40
2019-04-20T20:31:23.527Z,129.63
2019-04-20T20:33:58.967Z,176.10
2019-04-20T20:36:21.976Z,184.57
2019-04-20T20:38:52.503Z,148.15
2019-04-20T20:41:28.215Z,127.55
2019-04-20T20:44:03.100Z,145.60
2019-04-20T20:46:32.750Z,144.90
2019-04-20T20:49:27.247Z,118.00
2019-04-20T20:51:48.504Z,89.17
2019-04-20T20:54:09.213Z,85.50
2019-04-20T20:56:35.608Z,87.00
2019-04-20T20:59:11.473Z,98.07
2019-04-20T21:01:44.343Z,113.85
2019-04-20T21:04:05.296Z,232.77
2019-04-20T21:06:36.983Z,148.55
2019-04-20T21:09:08.146Z,96.02
2019-04-20T21:11:40.193Z,115.12
2019-04-20T21:16:50.922Z,84.07
2019-04-20T21:19:23.468Z,72.58
2019-04-20T21:21:50.472Z,78.10
2019-04-20T21:24:19.737Z,86.50
2019-04-20T21:26:49.702Z,71.30
2019-04-20T21:29:31.736Z,80.28
2019-04-20T21:32:01.222Z,126.58
2019-04-20T21:34:25.553Z,88.15
2019-04-20T21:37:07.044Z,91.02
2019-04-20T21:39:37.141Z,91.35
2019-04-20T21:42:07.578Z,114.85
2019-04-20T21:44:35.608Z,103.58
2019-04-20T21:47:03.279Z,97.27
2019-04-20T21:49:45.963Z,83.07
2019-04-20T21:52:14.903Z,62.53
2019-04-20T21:54:38.241Z,59.58
2019-04-20T21:57:12.479Z,74.22
2019-04-20T21:59:44.614Z,77.12
2019-04-20T22:02:19.477Z,95.55
2019-04-20T22:04:45.175Z,162.47
2019-04-20T22:07:16.547Z,136.20
2019-04-20T22:09:51.618Z,117.50
2019-04-20T22:12:18.284Z,84.62
2019-04-20T22:14:57.883Z,92.08
2019-04-20T22:17:24.575Z,94.37
2019-04-20T22:20:05.676Z,106.43
2019-04-20T22:22:45.476Z,95.20
2019-04-20T22:25:06.294Z,89.13
2019-04-20T22:27:30.078Z,107.17
2019-04-20T22:29:57.539Z,182.70
2019-04-20T22:32:28.113Z,193.55
2019-04-20T22:35:03.216Z,126.72
2019-04-20T22:37:36.923Z,156.20
2019-04-20T22:40:13.842Z,100.02
2019-04-20T22:42:46.580Z,143.85
2019-04-20T22:45:14.194Z,124.53
2019-04-20T22:47:42.741Z,117.85
2019-04-20T22:50:25.507Z,78.12
2019-04-20T22:52:55.568Z,77.08
2019-04-20T22:55:42.638Z,93.92
2019-04-20T22:57:58.548Z,96.65
2019-04-20T23:00:31.215Z,56.88
2019-04-20T23:02:52.263Z,57.73
2019-04-20T23:05:23.123Z,67.62
2019-04-20T23:07:52.937Z,52.62
2019-04-20T23:10:30.465Z,90.17
2019-04-20T23:12:57.831Z,161.07
2019-04-20T23:15:26.052Z,104.63
2019-04-20T23:17:55.965Z,88.05
2019-04-20T23:20:32.194Z,85.67
2019-04-20T23:23:00.783Z,74.90
2019-04-20T23:25:31.748Z,94.37
2019-04-20T23:28:06.436Z,84.00
2019-04-20T23:30:37.469Z,90.45
2019-04-20T23:33:04.593Z,98.05
2019-04-20T23:35:37.496Z,92.90
2019-04-20T23:38:11.014Z,73.97
2019-04-20T23:40:37.528Z,68.02
2019-04-20T23:43:24.539Z,94.42
2019-04-20T23:46:09.243Z,50.93
2019-04-20T23:48:42.712Z,63.02
2019-04-20T23:51:35.110Z,84.65
2019-04-20T23:53:53.907Z,82.20
2019-04-20T23:56:16.987Z,78.85
2019-04-20T23:58:48.267Z,74.32
